Time;durP1;ratioP1;P1;durP2;ratioP2;P2;SDS_P1;SDS_P2;PMS_P1;PMS_P2;Temp;Humidity;BMP_temperature;BMP_pressure;BME280_temperature;BME280_humidity;BME280_pressure;Samples;Min_cycle;Max_cycle;Signal;HPM_P1;HPM_P2
2022/07/03 00:01:57;;;;;;;22.73;6.00;;;;;;;19.38;56.92;99745.53;4981103;28;20058;-67
2022/07/03 00:04:23;;;;;;;19.33;6.32;;;;;;;19.40;56.48;99740.47;4982680;28;20046;-67
2022/07/03 00:06:49;;;;;;;20.95;5.93;;;;;;;19.36;56.61;99736.75;4980845;28;20537;-67
2022/07/03 00:09:15;;;;;;;15.30;6.50;;;;;;;19.44;56.67;99735.88;4981610;28;20418;-68
2022/07/03 00:11:43;;;;;;;17.83;5.15;;;;;;;19.52;55.82;99728.66;4963518;28;20415;-66
2022/07/03 00:14:09;;;;;;;13.73;5.57;;;;;;;19.54;55.13;99734.66;4979974;28;20058;-66
2022/07/03 00:16:35;;;;;;;17.40;5.38;;;;;;;19.57;54.68;99731.22;4977560;28;20073;-65
2022/07/03 00:19:02;;;;;;;14.38;4.97;;;;;;;19.59;54.58;99740.00;4974253;28;20134;-66
2022/07/03 00:21:31;;;;;;;14.82;4.90;;;;;;;19.57;55.33;99722.91;4950291;28;20078;-66
2022/07/03 00:24:02;;;;;;;21.17;6.22;;;;;;;19.55;56.19;99737.09;4970838;28;20042;-65
2022/07/03 00:26:31;;;;;;;20.38;5.30;;;;;;;19.54;56.06;99735.47;4976393;28;20588;-65
2022/07/03 00:29:00;;;;;;;19.48;5.70;;;;;;;19.51;56.21;99729.78;4976140;28;20073;-66
2022/07/03 00:31:29;;;;;;;18.55;5.82;;;;;;;19.48;56.58;99738.78;4980959;28;20141;-66
2022/07/03 00:33:57;;;;;;;15.75;5.35;;;;;;;19.46;58.48;99741.91;4960339;28;20158;-66
2022/07/03 00:36:25;;;;;;;17.73;6.00;;;;;;;19.47;60.33;99751.84;4980152;28;20148;-67
2022/07/03 00:38:51;;;;;;;17.20;5.80;;;;;;;19.41;61.49;99744.84;4982085;28;20532;-67
2022/07/03 00:41:26;;;;;;;18.30;6.40;;;;;;;19.37;61.66;99739.19;4975287;28;20054;-66
2022/07/03 00:43:52;;;;;;;16.67;5.55;;;;;;;19.34;60.50;99739.84;4982726;28;20089;-66
2022/07/03 00:46:22;;;;;;;21.15;6.07;;;;;;;19.35;60.57;99743.44;4980405;28;20050;-67
2022/07/03 00:48:49;;;;;;;16.75;5.82;;;;;;;19.31;59.00;99740.50;4980589;28;20065;-68
2022/07/03 00:51:21;;;;;;;13.93;5.47;;;;;;;19.26;59.21;99743.50;4976385;28;20553;-67
2022/07/03 00:53:50;;;;;;;23.92;5.82;;;;;;;19.19;59.88;99741.25;4978059;28;20050;-66
2022/07/03 00:56:19;;;;;;;21.58;6.40;;;;;;;19.13;59.96;99746.16;4979438;28;20073;-66
2022/07/03 00:58:45;;;;;;;17.15;6.13;;;;;;;19.07;59.45;99739.19;4980756;28;20043;-67
2022/07/03 01:01:16;;;;;;;22.02;5.57;;;;;;;18.90;58.33;99709.56;4972152;28;20210;-66
2022/07/03 01:03:45;;;;;;;10.80;4.80;;;;;;;19.02;58.25;99733.81;4994846;28;20654;-66
2022/07/03 01:06:14;;;;;;;13.18;4.72;;;;;;;18.95;57.27;99719.66;4993954;28;20053;-67
2022/07/03 01:08:46;;;;;;;16.63;4.88;;;;;;;19.01;56.63;99728.63;4977485;28;20058;-67
2022/07/03 01:11:21;;;;;;;17.65;4.65;;;;;;;19.06;56.30;99723.72;4973194;28;20049;-68
2022/07/03 01:14:00;;;;;;;11.27;4.97;;;;;;;19.09;55.78;99719.44;4977565;28;20105;-66
2022/07/03 01:16:33;;;;;;;14.63;4.95;;;;;;;19.09;55.68;99720.28;4979353;28;20142;-67
2022/07/03 01:19:16;;;;;;;17.85;4.38;;;;;;;19.09;56.04;99723.03;4980878;28;20104;-66
2022/07/03 01:21:54;;;;;;;16.50;4.90;;;;;;;19.11;56.13;99723.50;4977013;28;20046;-67
2022/07/03 01:24:44;;;;;;;19.60;5.30;;;;;;;19.10;56.40;99727.44;4977217;28;20053;-67
2022/07/03 01:27:16;;;;;;;11.43;4.65;;;;;;;19.10;56.74;99709.97;4980397;28;20061;-68
2022/07/03 01:29:52;;;;;;;14.93;4.72;;;;;;;19.13;56.58;99714.88;4979448;28;20058;-67
2022/07/03 01:32:22;;;;;;;11.82;4.85;;;;;;;19.08;56.82;99718.66;4976269;28;20426;-68
2022/07/03 01:34:52;;;;;;;18.02;4.88;;;;;;;19.10;56.41;99713.59;4979452;28;20054;-67
2022/07/03 01:37:21;;;;;;;12.98;4.78;;;;;;;19.10;55.87;99718.28;4967761;28;20050;-67
2022/07/03 01:39:52;;;;;;;13.85;4.95;;;;;;;19.11;56.00;99722.69;4975764;28;20105;-66
2022/07/03 01:42:22;;;;;;;15.90;4.68;;;;;;;19.15;55.59;99728.38;4962248;28;20169;-67
2022/07/03 01:44:52;;;;;;;11.63;4.97;;;;;;;19.13;55.69;99726.75;4973660;28;20125;-66
2022/07/03 01:47:18;;;;;;;11.55;4.82;;;;;;;19.21;55.59;99718.75;4976059;28;20418;-67
2022/07/03 01:49:44;;;;;;;13.63;5.18;;;;;;;19.26;55.91;99715.78;4976598;28;20046;-67
2022/07/03 01:52:11;;;;;;;14.00;5.00;;;;;;;19.29;55.83;99712.31;4977516;28;20049;-66
2022/07/03 01:54:39;;;;;;;12.73;5.40;;;;;;;19.35;56.26;99712.94;4969557;28;20046;-68
2022/07/03 01:57:06;;;;;;;19.40;5.57;;;;;;;19.37;56.31;99714.25;4978289;28;20057;-65
2022/07/03 01:59:35;;;;;;;14.55;5.60;;;;;;;19.41;56.21;99714.34;4976308;28;20085;-67
2022/07/03 02:02:12;;;;;;;16.95;5.80;;;;;;;19.47;55.88;99732.44;4978250;28;20529;-65
2022/07/03 02:04:58;;;;;;;15.45;5.50;;;;;;;19.48;55.84;99722.13;4974965;28;20051;-66
2022/07/03 02:07:33;;;;;;;15.48;5.30;;;;;;;19.59;55.44;99725.31;4978194;28;20066;-66
2022/07/03 02:10:03;;;;;;;12.13;4.57;;;;;;;19.63;55.35;99723.50;4979069;28;20046;-66
2022/07/03 02:12:38;;;;;;;13.82;4.60;;;;;;;19.67;55.22;99730.81;4978529;28;20050;-67
2022/07/03 02:15:08;;;;;;;11.68;4.28;;;;;;;19.69;54.91;99722.97;4976603;28;20046;-67
2022/07/03 02:17:38;;;;;;;12.20;4.63;;;;;;;19.60;54.93;99700.03;4981699;28;20054;-66
2022/07/03 02:20:07;;;;;;;12.32;4.47;;;;;;;19.78;54.64;99719.31;4979998;28;20062;-67
2022/07/03 02:22:36;;;;;;;11.57;4.68;;;;;;;19.84;54.30;99709.66;4981469;28;20548;-68
2022/07/03 02:25:04;;;;;;;10.68;4.22;;;;;;;19.90;54.29;99719.38;4981439;28;20637;-68
2022/07/03 02:27:43;;;;;;;12.50;4.60;;;;;;;19.94;54.56;99719.53;4975960;28;20054;-66
2022/07/03 02:30:12;;;;;;;16.33;4.97;;;;;;;20.01;54.43;99727.31;4979752;28;20050;-68
2022/07/03 02:32:42;;;;;;;11.32;4.20;;;;;;;20.04;53.95;99715.53;4978762;28;20050;-67
2022/07/03 02:35:11;;;;;;;10.98;5.10;;;;;;;20.08;54.01;99714.50;4982830;28;20055;-67
2022/07/03 02:37:44;;;;;;;16.83;4.68;;;;;;;20.11;53.56;99710.22;4982840;28;20066;-66
2022/07/03 02:40:22;;;;;;;12.90;4.50;;;;;;;20.17;53.41;99719.97;4986081;28;20042;-67
2022/07/03 02:42:58;;;;;;;12.80;5.00;;;;;;;20.22;53.17;99710.63;4982174;28;20050;-68
2022/07/03 02:45:34;;;;;;;14.82;5.50;;;;;;;20.23;53.24;99710.25;4983961;28;20129;-67
2022/07/03 02:48:07;;;;;;;12.07;4.87;;;;;;;20.26;53.27;99720.69;4973125;28;20125;-67
2022/07/03 02:50:36;;;;;;;17.13;4.68;;;;;;;20.30;52.76;99715.25;4980071;28;20427;-66
2022/07/03 02:53:06;;;;;;;20.33;4.70;;;;;;;20.35;52.87;99708.69;4981991;28;20596;-67
2022/07/03 02:55:42;;;;;;;13.65;4.90;;;;;;;20.39;52.75;99710.44;4979036;28;20446;-66
2022/07/03 02:58:45;;;;;;;10.70;4.75;;;;;;;20.44;52.33;99709.38;4981420;28;20045;-65
2022/07/03 03:01:20;;;;;;;13.43;4.72;;;;;;;20.48;52.50;99709.50;4978882;28;20050;-65
2022/07/03 03:03:58;;;;;;;11.00;4.40;;;;;;;20.51;51.96;99711.59;4984696;28;20467;-67
2022/07/03 03:06:27;;;;;;;10.13;4.70;;;;;;;20.55;51.81;99709.78;4984346;28;20050;-66
2022/07/03 03:09:02;;;;;;;11.52;4.70;;;;;;;20.55;51.70;99713.34;4978406;28;20051;-67
2022/07/03 03:11:32;;;;;;;11.48;4.68;;;;;;;20.63;52.10;99714.41;4976911;28;20113;-67
2022/07/03 03:14:00;;;;;;;12.65;4.57;;;;;;;20.64;52.27;99704.91;4981750;28;20467;-67
2022/07/03 03:16:28;;;;;;;16.00;4.63;;;;;;;20.70;52.17;99713.81;4984579;28;20046;-66
2022/07/03 03:18:54;;;;;;;13.93;5.03;;;;;;;20.71;52.00;99709.09;4979902;28;20271;-67
2022/07/03 03:21:23;;;;;;;14.30;4.75;;;;;;;20.76;51.57;99706.06;4977938;28;20076;-67
2022/07/03 03:23:52;;;;;;;13.07;4.60;;;;;;;20.79;51.63;99711.75;4981571;28;20058;-68
2022/07/03 03:26:19;;;;;;;15.02;5.00;;;;;;;20.81;51.87;99700.31;4995209;28;20113;-66
2022/07/03 03:28:45;;;;;;;;;;;;;;;20.83;51.95;99701.59;4982658;28;20132;-68
2022/07/03 03:31:12;;;;;;;15.85;4.60;;;;;;;20.84;52.07;99705.19;4979285;28;19926;-65
2022/07/03 03:33:43;;;;;;;9.03;4.33;;;;;;;20.87;51.93;99695.34;4980768;28;20042;-67
2022/07/03 03:36:11;;;;;;;10.55;4.57;;;;;;;20.88;51.32;99696.97;4978535;28;20505;-66
2022/07/03 03:38:37;;;;;;;13.35;4.85;;;;;;;20.93;51.77;99697.53;4982526;28;20553;-69
2022/07/03 03:41:04;;;;;;;12.65;4.78;;;;;;;20.98;51.61;99690.94;4980345;28;20542;-66
2022/07/03 03:43:31;;;;;;;13.15;4.70;;;;;;;21.01;51.81;99698.59;4981224;28;20145;-68
2022/07/03 03:45:57;;;;;;;12.90;5.45;;;;;;;21.02;51.39;99691.88;4980919;28;20057;-67
2022/07/03 03:48:23;;;;;;;13.25;5.05;;;;;;;21.05;51.37;99695.94;4983385;28;20049;-66
2022/07/03 03:50:50;;;;;;;12.68;4.70;;;;;;;21.06;51.37;99697.53;4983096;28;20054;-67
2022/07/03 03:53:17;;;;;;;10.90;4.90;;;;;;;21.10;51.10;99695.69;4978165;28;20713;-66
2022/07/03 03:55:57;;;;;;;11.98;4.80;;;;;;;21.15;51.20;99698.25;4980944;28;20074;-67
2022/07/03 03:58:24;;;;;;;13.07;4.88;;;;;;;21.20;51.06;99697.16;4978190;28;20489;-66
2022/07/03 04:00:50;;;;;;;11.10;4.70;;;;;;;21.22;51.30;99692.06;4983607;28;20469;-68
2022/07/03 04:03:16;;;;;;;16.67;5.20;;;;;;;21.26;51.21;99690.22;4978310;28;20986;-66
2022/07/03 04:05:42;;;;;;;15.35;4.90;;;;;;;21.30;51.47;99684.75;4983480;28;20042;-68
2022/07/03 04:08:10;;;;;;;12.80;5.38;;;;;;;21.35;51.36;99688.09;4982067;28;21300;-67
2022/07/03 04:10:36;;;;;;;19.48;5.53;;;;;;;21.35;51.41;99677.00;4982929;28;20624;-67
2022/07/03 04:13:02;;;;;;;23.85;5.68;;;;;;;21.38;51.36;99675.50;4978676;28;20130;-67
2022/07/03 04:15:28;;;;;;;18.58;5.65;;;;;;;21.40;51.68;99675.94;4996087;28;20152;-67
2022/07/03 04:17:54;;;;;;;12.85;5.07;;;;;;;21.44;51.68;99687.19;4981035;28;20050;-65
2022/07/03 04:20:20;;;;;;;15.18;5.50;;;;;;;21.48;51.67;99683.34;4982013;28;20517;-67
2022/07/03 04:22:48;;;;;;;14.73;5.60;;;;;;;21.53;51.52;99687.84;4964115;28;20058;-66
2022/07/03 04:25:15;;;;;;;15.48;5.13;;;;;;;21.52;51.23;99686.22;4979187;28;20066;-66
2022/07/03 04:27:41;;;;;;;17.25;5.50;;;;;;;21.58;51.46;99690.38;4981549;28;20720;-67
2022/07/03 04:30:10;;;;;;;13.20;5.30;;;;;;;21.63;51.51;99692.91;4975113;28;20056;-67
2022/07/03 04:32:36;;;;;;;11.70;5.22;;;;;;;21.69;51.17;99682.38;4980951;28;20073;-69
2022/07/03 04:35:03;;;;;;;10.32;4.97;;;;;;;21.71;51.54;99687.59;4982302;28;20329;-67
2022/07/03 04:37:30;;;;;;;15.38;5.70;;;;;;;21.71;51.34;99688.41;4982892;28;20616;-67
2022/07/03 04:39:56;;;;;;;13.82;5.30;;;;;;;21.73;51.19;99693.63;4981543;28;20475;-66
2022/07/03 04:42:23;;;;;;;17.70;5.70;;;;;;;21.78;51.08;99698.91;4980350;28;20047;-67
2022/07/03 04:44:49;;;;;;;11.93;5.03;;;;;;;21.82;51.27;99694.25;4979541;28;20081;-69
2022/07/03 04:47:15;;;;;;;12.18;5.55;;;;;;;21.83;51.22;99695.09;4982127;28;20096;-66
2022/07/03 04:49:41;;;;;;;13.07;5.30;;;;;;;21.89;51.81;99696.44;4982635;28;20046;-67
2022/07/03 04:52:07;;;;;;;12.23;5.40;;;;;;;21.96;51.99;99689.09;4981683;28;20050;-66
2022/07/03 04:54:33;;;;;;;11.82;5.32;;;;;;;21.98;51.67;99676.81;4978521;28;20773;-68
2022/07/03 04:56:59;;;;;;;12.60;5.00;;;;;;;22.15;51.72;99686.81;4979584;28;20051;-67
2022/07/03 04:59:27;;;;;;;11.98;5.10;;;;;;;22.19;51.83;99682.97;4980832;28;20046;-68
2022/07/03 05:01:53;;;;;;;10.65;5.30;;;;;;;22.22;51.32;99687.00;4980585;28;20510;-68
2022/07/03 05:04:19;;;;;;;14.23;5.72;;;;;;;22.27;51.50;99680.38;4978546;28;20355;-68
2022/07/03 05:06:46;;;;;;;11.52;5.63;;;;;;;22.31;51.23;99693.22;4979026;28;20066;-67
2022/07/03 05:09:12;;;;;;;14.38;5.25;;;;;;;22.38;51.23;99687.03;4974639;28;20652;-68
2022/07/03 05:11:38;;;;;;;10.50;5.03;;;;;;;22.39;51.14;99686.66;4979966;28;20104;-68
2022/07/03 05:14:04;;;;;;;17.15;5.80;;;;;;;22.25;50.98;99661.25;4981969;28;20573;-68
2022/07/03 05:16:32;;;;;;;13.23;5.37;;;;;;;22.43;50.99;99685.97;4980021;28;20046;-67
2022/07/03 05:18:58;;;;;;;20.30;5.70;;;;;;;22.43;50.70;99688.75;4630984;28;10000486;-67
2022/07/03 05:21:24;;;;;;;16.65;6.05;;;;;;;22.44;50.88;99690.38;4974931;28;20427;-66
2022/07/03 05:23:50;;;;;;;11.20;5.38;;;;;;;22.46;50.66;99683.25;4977279;28;20054;-67
2022/07/03 05:26:16;;;;;;;10.13;5.40;;;;;;;22.52;50.26;99689.38;4990464;28;20564;-69
2022/07/03 05:28:42;;;;;;;12.27;5.65;;;;;;;22.61;50.29;99680.84;4974580;28;20051;-68
2022/07/03 05:31:08;;;;;;;18.05;5.95;;;;;;;22.70;50.07;99686.25;4975909;28;20132;-67
2022/07/03 05:33:37;;;;;;;14.75;5.82;;;;;;;22.77;50.20;99683.66;4976851;28;20547;-68
2022/07/03 05:36:04;;;;;;;16.70;5.65;;;;;;;22.82;50.36;99686.16;4976214;28;20073;-68
2022/07/03 05:41:16;;;;;;;15.48;5.63;;;;;;;22.84;49.88;99685.81;4977154;28;20526;-68
2022/07/03 05:43:42;;;;;;;19.75;5.80;;;;;;;22.90;49.85;99678.78;4973102;28;20080;-68
2022/07/03 05:46:08;;;;;;;12.30;5.93;;;;;;;22.93;50.01;99678.88;4970074;28;20057;-67
2022/07/03 05:48:36;;;;;;;19.23;6.20;;;;;;;22.98;49.73;99674.16;4971892;28;20070;-67
2022/07/03 05:51:03;;;;;;;13.77;5.75;;;;;;;23.03;49.68;99676.69;4971185;28;20427;-68
2022/07/03 05:53:29;;;;;;;14.90;5.85;;;;;;;23.09;49.53;99678.81;4969842;28;20053;-67
2022/07/03 05:55:56;;;;;;;12.93;6.05;;;;;;;23.12;49.43;99663.34;4970211;28;20043;-67
2022/07/03 05:58:22;;;;;;;14.30;6.10;;;;;;;23.21;49.02;99666.75;4972318;28;20050;-67
2022/07/03 06:00:48;;;;;;;16.55;6.00;;;;;;;23.25;48.84;99677.19;4967144;28;20363;-67
2022/07/03 06:03:15;;;;;;;15.40;5.95;;;;;;;23.18;49.01;99655.53;4975981;28;20500;-67
2022/07/03 06:05:42;;;;;;;12.80;5.82;;;;;;;23.30;48.54;99666.59;4976731;28;20529;-68
2022/07/03 06:08:08;;;;;;;15.48;5.65;;;;;;;23.33;48.45;99671.41;4987347;28;20050;-66
2022/07/03 06:10:34;;;;;;;15.20;5.75;;;;;;;23.40;48.63;99667.16;4970755;28;20092;-68
2022/07/03 06:13:00;;;;;;;16.05;6.05;;;;;;;23.48;48.88;99666.16;4977422;28;20039;-68
2022/07/03 06:15:27;;;;;;;13.57;5.70;;;;;;;23.57;48.69;99657.56;4974578;28;20327;-66
2022/07/03 06:17:53;;;;;;;18.20;6.38;;;;;;;23.68;48.78;99668.94;4976319;28;20510;-68
2022/07/03 06:20:19;;;;;;;14.98;6.20;;;;;;;23.74;48.34;99673.88;4979798;28;20077;-69
2022/07/03 06:22:46;;;;;;;11.50;6.05;;;;;;;23.80;48.24;99663.22;4962582;28;20055;-68
2022/07/03 06:25:13;;;;;;;17.63;6.32;;;;;;;23.87;47.98;99668.13;4975864;28;20046;-68
2022/07/03 06:27:39;;;;;;;11.27;5.90;;;;;;;24.08;47.53;99667.78;4982457;28;20538;-69
2022/07/03 06:30:06;;;;;;;17.67;6.32;;;;;;;24.29;47.21;99669.34;4985521;28;20052;-68
2022/07/03 06:32:32;;;;;;;18.60;6.63;;;;;;;24.46;46.42;99677.22;4983788;28;20050;-66
2022/07/03 06:34:58;;;;;;;16.70;6.22;;;;;;;24.71;46.11;99668.47;4984608;28;20050;-67
2022/07/03 06:37:24;;;;;;;17.00;5.93;;;;;;;24.94;45.05;99669.63;4982791;28;20058;-67
2022/07/03 06:39:52;;;;;;;21.05;6.85;;;;;;;25.17;44.80;99663.97;4977096;28;20050;-68
2022/07/03 06:42:18;;;;;;;16.75;6.28;;;;;;;25.39;44.00;99662.28;4983825;28;20050;-66
2022/07/03 06:44:46;;;;;;;20.70;6.50;;;;;;;25.58;43.71;99660.56;4983680;28;20553;-68
2022/07/03 06:47:12;;;;;;;16.17;6.00;;;;;;;25.75;43.35;99668.34;4979033;28;20137;-68
2022/07/03 06:49:38;;;;;;;14.75;5.72;;;;;;;25.90;42.90;99663.72;4978205;28;20081;-68
2022/07/03 06:52:05;;;;;;;20.50;6.45;;;;;;;26.00;42.87;99665.03;4980408;28;20070;-67
2022/07/03 06:54:31;;;;;;;17.43;6.30;;;;;;;26.09;42.42;99670.34;4977050;28;20039;-68
2022/07/03 06:56:58;;;;;;;22.85;6.70;;;;;;;26.16;42.08;99664.00;4977663;28;20473;-69
2022/07/03 06:59:24;;;;;;;27.02;6.63;;;;;;;26.27;41.73;99672.53;4978587;28;20050;-68
2022/07/03 07:01:50;;;;;;;16.88;6.70;;;;;;;26.35;41.62;99671.41;4978841;28;20039;-68
2022/07/03 07:04:16;;;;;;;13.70;5.47;;;;;;;26.38;41.63;99673.44;4980719;28;20055;-68
2022/07/03 07:06:42;;;;;;;13.52;6.15;;;;;;;26.32;41.23;99653.38;4981417;28;20484;-69
2022/07/03 07:09:08;;;;;;;14.35;6.20;;;;;;;26.57;41.32;99678.00;4979309;28;20047;-68
2022/07/03 07:11:34;;;;;;;16.45;6.30;;;;;;;26.68;40.80;99671.69;4980288;28;20050;-69
2022/07/03 07:14:01;;;;;;;12.77;5.88;;;;;;;26.80;40.72;99668.59;4976951;28;20467;-66
2022/07/03 07:16:29;;;;;;;14.45;5.95;;;;;;;26.92;40.33;99675.91;4974536;28;20052;-67
2022/07/03 07:18:55;;;;;;;18.05;6.03;;;;;;;27.06;39.74;99663.97;4979410;28;20050;-68
2022/07/03 07:21:21;;;;;;;13.32;5.15;;;;;;;27.17;39.44;99672.47;4970738;28;20050;-69
2022/07/03 07:23:47;;;;;;;18.97;5.83;;;;;;;27.20;39.34;99676.47;4629991;28;10000082;-69
2022/07/03 07:26:13;;;;;;;11.98;5.78;;;;;;;27.28;38.83;99667.69;4974401;28;20093;-69
2022/07/03 07:28:39;;;;;;;9.77;5.13;;;;;;;27.42;38.14;99678.22;4971947;28;20054;-69
2022/07/03 07:31:07;;;;;;;12.30;5.17;;;;;;;27.61;37.71;99667.91;4974429;28;20047;-69
2022/07/03 07:33:33;;;;;;;12.30;5.60;;;;;;;27.74;37.49;99673.94;4975567;28;20042;-69
2022/07/03 07:35:59;;;;;;;16.85;5.72;;;;;;;27.78;37.16;99665.53;4976419;28;20054;-68
2022/07/03 07:38:25;;;;;;;10.90;5.03;;;;;;;27.82;36.91;99669.97;4980562;28;20120;-69
2022/07/03 07:40:51;;;;;;;14.10;5.00;;;;;;;27.88;36.68;99670.41;4982167;28;20157;-69
2022/07/03 07:43:17;;;;;;;10.25;4.80;;;;;;;27.97;36.69;99673.63;4993249;28;20129;-68
2022/07/03 07:45:43;;;;;;;15.90;5.77;;;;;;;27.95;36.88;99672.44;4975449;28;20115;-69
2022/07/03 07:48:11;;;;;;;12.13;5.55;;;;;;;28.05;36.10;99677.25;4974793;28;20285;-68
2022/07/03 07:50:37;;;;;;;13.32;5.50;;;;;;;27.98;35.84;99658.38;4979909;28;20179;-69
2022/07/03 07:53:03;;;;;;;14.15;5.60;;;;;;;27.98;36.24;99666.81;4980599;28;20058;-67
2022/07/03 07:55:29;;;;;;;19.93;6.07;;;;;;;28.17;35.85;99662.88;4970776;28;20121;-68
2022/07/03 07:57:55;;;;;;;13.50;5.82;;;;;;;28.32;35.69;99665.69;4980830;28;20054;-68
2022/07/03 08:00:22;;;;;;;16.08;5.70;;;;;;;28.50;35.59;99664.91;4979528;28;20057;-68
2022/07/03 08:05:36;;;;;;;10.35;5.57;;;;;;;29.01;34.43;99665.69;4981732;28;20412;-65
2022/07/03 08:08:05;;;;;;;14.20;6.03;;;;;;;29.18;33.82;99668.88;4975793;28;20148;-67
2022/07/03 08:10:34;;;;;;;13.35;5.57;;;;;;;29.58;33.19;99667.56;4975687;28;20090;-67
2022/07/03 08:13:01;;;;;;;11.68;5.10;;;;;;;29.71;32.55;99662.25;4973285;28;20129;-68
2022/07/03 08:15:27;;;;;;;14.17;5.90;;;;;;;29.83;32.18;99658.19;4977222;28;20046;-68
2022/07/03 08:17:53;;;;;;;12.23;5.37;;;;;;;29.90;31.67;99667.81;4989991;28;20050;-68
2022/07/03 08:20:19;;;;;;;13.82;6.07;;;;;;;30.02;31.49;99660.91;4974082;28;20202;-67
2022/07/03 08:22:46;;;;;;;16.93;5.97;;;;;;;30.25;30.82;99658.38;4975438;28;20074;-68
2022/07/03 08:25:13;;;;;;;15.32;6.15;;;;;;;30.51;30.90;99655.34;4975738;28;20302;-67
2022/07/03 08:27:39;;;;;;;13.38;5.95;;;;;;;30.32;31.22;99663.16;4979085;28;20201;-68
2022/07/03 08:30:07;;;;;;;13.55;5.82;;;;;;;30.41;30.74;99669.09;4982361;28;20052;-68
2022/07/03 08:32:33;;;;;;;13.93;6.88;;;;;;;30.59;30.95;99656.09;4977298;28;20479;-68
2022/07/03 08:34:59;;;;;;;14.87;7.50;;;;;;;30.90;30.56;99664.72;4979798;28;20545;-68
2022/07/03 08:37:26;;;;;;;11.53;6.03;;;;;;;31.16;30.34;99665.25;4975565;28;20077;-67
2022/07/03 08:39:53;;;;;;;17.98;6.10;;;;;;;31.32;29.63;99659.03;4980697;28;20050;-66
2022/07/03 08:42:20;;;;;;;14.48;6.40;;;;;;;31.57;29.06;99669.25;4976387;28;20596;-67
2022/07/03 08:44:46;;;;;;;12.90;5.80;;;;;;;31.64;29.45;99669.13;4973467;28;20046;-66
2022/07/03 08:47:15;;;;;;;13.63;5.60;;;;;;;31.78;29.21;99663.34;4974111;28;20054;-67
2022/07/03 08:49:42;;;;;;;14.00;6.18;;;;;;;32.24;27.83;99665.91;4974843;28;20046;-67
2022/07/03 08:52:11;;;;;;;14.73;5.50;;;;;;;32.33;27.94;99665.38;4977877;28;20510;-67
2022/07/03 08:54:37;;;;;;;18.15;5.80;;;;;;;31.55;29.11;99673.28;4977901;28;20518;-66
2022/07/03 08:57:05;;;;;;;16.88;6.47;;;;;;;32.24;28.19;99663.91;4978342;28;20073;-66
2022/07/03 08:59:36;;;;;;;14.73;6.15;;;;;;;32.74;26.77;99655.84;4973033;28;20112;-67
2022/07/03 09:02:04;;;;;;;22.10;8.65;;;;;;;32.74;26.72;99667.16;4971992;28;20562;-68
2022/07/03 09:04:30;;;;;;;13.00;5.65;;;;;;;33.14;25.91;99660.78;4977326;28;20137;-69
2022/07/03 09:06:58;;;;;;;14.95;5.70;;;;;;;33.31;25.26;99658.03;4976262;28;20046;-67
2022/07/03 09:09:24;;;;;;;11.52;5.93;;;;;;;32.94;26.30;99658.75;4977644;28;20050;-67
2022/07/03 09:11:51;;;;;;;13.00;6.05;;;;;;;33.01;26.36;99666.28;4959289;28;20074;-66
2022/07/03 09:14:19;;;;;;;11.57;6.13;;;;;;;32.70;25.71;99657.91;4993168;28;20118;-68
2022/07/03 09:16:45;;;;;;;11.00;5.70;;;;;;;31.76;27.33;99656.47;4979124;28;20051;-66
2022/07/03 09:19:11;;;;;;;11.32;5.18;;;;;;;31.03;27.33;99657.31;4973941;28;20101;-68
2022/07/03 09:21:38;;;;;;;9.32;5.10;;;;;;;31.16;27.08;99668.09;4978360;28;20069;-68
2022/07/03 09:24:06;;;;;;;14.52;5.90;;;;;;;32.52;25.61;99659.03;4967194;28;20427;-67
2022/07/03 09:26:33;;;;;;;10.38;5.50;;;;;;;33.26;24.45;99665.00;4969109;28;20522;-68
2022/07/03 09:29:00;;;;;;;11.90;5.30;;;;;;;33.87;23.02;99656.47;4970197;28;20054;-66
2022/07/03 09:31:27;;;;;;;;;;;;;;;34.68;22.02;99650.56;4972251;28;20100;-68
2022/07/03 09:33:55;;;;;;;17.98;4.60;;;;;;;35.11;21.54;99648.63;4991748;28;19925;-66
2022/07/03 09:36:36;;;;;;;13.73;5.65;;;;;;;34.52;21.73;99651.38;4976844;28;20038;-67
2022/07/03 09:39:12;;;;;;;13.05;6.90;;;;;;;34.73;21.86;99655.69;4977642;28;20049;-67
2022/07/03 09:41:54;;;;;;;11.18;4.60;;;;;;;35.44;20.90;99657.03;4977009;28;20518;-66
2022/07/03 09:44:35;;;;;;;12.80;5.57;;;;;;;35.72;20.87;99654.63;4977655;28;20074;-67
2022/07/03 09:47:16;;;;;;;10.80;4.63;;;;;;;35.56;20.64;99656.28;4960171;28;20121;-67
2022/07/03 09:49:47;;;;;;;15.13;4.53;;;;;;;35.70;19.91;99657.13;4974014;28;20049;-68
2022/07/03 09:52:28;;;;;;;13.07;4.32;;;;;;;36.16;18.47;99659.78;4970148;28;20505;-68
2022/07/03 09:54:56;;;;;;;6.90;3.80;;;;;;;36.74;18.11;99632.25;4971155;28;20330;-66
2022/07/03 09:57:23;;;;;;;10.98;4.57;;;;;;;37.13;18.51;99652.06;4952577;28;20062;-67
2022/07/03 10:00:07;;;;;;;9.55;4.90;;;;;;;37.09;18.36;99629.41;4981994;28;20059;-65
2022/07/03 10:02:34;;;;;;;10.07;4.80;;;;;;;37.24;18.49;99643.94;4978665;28;20038;-67
2022/07/03 10:05:12;;;;;;;9.50;4.40;;;;;;;37.07;18.48;99649.00;4976631;28;20046;-67
2022/07/03 10:07:50;;;;;;;10.75;4.47;;;;;;;37.08;18.60;99652.69;4984381;28;20289;-68
2022/07/03 10:10:17;;;;;;;10.65;4.50;;;;;;;36.95;18.73;99646.97;4984013;28;20515;-68
2022/07/03 10:12:44;;;;;;;11.35;5.15;;;;;;;36.89;18.66;99650.44;4979971;28;20066;-68
2022/07/03 10:15:12;;;;;;;9.25;4.45;;;;;;;37.26;18.41;99655.66;4971980;28;20056;-67
2022/07/03 10:17:42;;;;;;;14.20;5.05;;;;;;;37.31;18.57;99648.53;4976181;28;20193;-68
2022/07/03 10:20:13;;;;;;;13.35;5.07;;;;;;;37.63;18.11;99642.91;4979451;28;20074;-68
2022/07/03 10:22:42;;;;;;;21.60;5.78;;;;;;;37.84;17.89;99639.22;4973620;28;20043;-68
2022/07/03 10:25:09;;;;;;;12.38;4.85;;;;;;;37.68;17.58;99637.41;4973457;28;20061;-67
2022/07/03 10:27:36;;;;;;;14.82;4.75;;;;;;;37.45;17.56;99636.59;4981396;28;20062;-68
2022/07/03 10:30:02;;;;;;;11.10;4.60;;;;;;;37.64;17.43;99641.66;4972565;28;20136;-67
2022/07/03 10:32:32;;;;;;;20.63;5.00;;;;;;;37.79;17.20;99639.81;4978204;28;20209;-68
2022/07/03 10:35:01;;;;;;;9.00;4.68;;;;;;;37.71;17.30;99639.31;4979141;28;20062;-68
2022/07/03 10:37:41;;;;;;;10.43;4.60;;;;;;;37.70;16.98;99652.00;4979831;28;20536;-67
2022/07/03 10:46:15;;;;;;;12.52;5.13;;;;;;;39.30;16.11;99651.09;4977889;28;20054;-67
2022/07/03 10:48:57;;;;;;;15.45;5.43;;;;;;;39.17;16.80;99647.59;4976553;28;20050;-67
2022/07/03 10:51:27;;;;;;;14.55;7.32;;;;;;;37.84;18.21;99644.13;4968200;28;20048;-67
2022/07/03 10:54:14;;;;;;;8.90;5.22;;;;;;;37.72;18.52;99651.53;4972294;28;20046;-66
2022/07/03 10:57:17;;;;;;;15.73;5.22;;;;;;;38.29;17.22;99645.59;4972304;28;20371;-65
2022/07/03 10:59:57;;;;;;;12.45;4.90;;;;;;;38.81;16.67;99644.28;4950355;28;20138;-67
2022/07/03 11:02:32;;;;;;;9.50;5.07;;;;;;;39.35;16.45;99633.31;4971014;28;20062;-66
2022/07/03 11:05:08;;;;;;;11.30;4.80;;;;;;;39.45;16.05;99631.25;4975529;28;20055;-66
2022/07/03 11:07:43;;;;;;;15.60;5.30;;;;;;;39.18;16.19;99638.56;4976667;28;20577;-67
2022/07/03 11:10:29;;;;;;;8.43;4.80;;;;;;;39.63;16.30;99626.75;4977633;28;20624;-67
2022/07/03 11:12:57;;;;;;;12.23;5.32;;;;;;;39.66;16.41;99622.91;4978485;28;20093;-68
2022/07/03 11:16:21;;;;;;;12.90;5.88;;;;;;;39.68;16.29;99612.59;4981988;28;20224;-67
2022/07/03 11:18:56;;;;;;;;;;;;;;;39.46;16.29;99629.16;3948154;28;10001546;-67
2022/07/03 11:21:32;;;;;;;18.38;5.65;;;;;;;39.76;15.62;99620.81;4978814;28;19957;-67
2022/07/03 11:24:08;;;;;;;;;;;;;;;40.65;14.93;99609.03;4982219;28;20139;-67
2022/07/03 11:26:34;;;;;;;10.23;6.28;;;;;;;40.61;15.35;99616.25;4979485;28;19957;-67
2022/07/03 11:29:01;;;;;;;8.93;4.30;;;;;;;38.41;16.94;99621.03;4980955;28;20054;-67
2022/07/03 11:31:27;;;;;;;9.85;5.57;;;;;;;36.97;18.66;99619.63;4971490;28;20046;-68
2022/07/03 11:33:58;;;;;;;8.95;5.40;;;;;;;37.55;17.99;99620.41;4963552;28;20042;-68
2022/07/03 11:36:25;;;;;;;8.85;4.90;;;;;;;38.19;17.58;99618.28;4979949;28;20043;-68
2022/07/03 11:39:05;;;;;;;12.68;5.40;;;;;;;39.01;16.60;99618.09;4980330;28;20077;-69
2022/07/03 11:41:44;;;;;;;10.60;5.30;;;;;;;39.57;16.48;99609.44;4975673;28;20540;-68
2022/07/03 11:44:15;;;;;;;8.73;5.00;;;;;;;39.89;15.79;99615.69;4963622;28;20074;-69
2022/07/03 11:46:46;;;;;;;8.68;5.30;;;;;;;40.27;15.33;99617.06;4975583;28;20116;-68
2022/07/03 11:49:13;;;;;;;15.10;5.28;;;;;;;40.62;15.36;99615.75;4975198;28;20053;-67